Time;durP1;ratioP1;P1;durP2;ratioP2;P2;SDS_P1;SDS_P2;PMS_P1;PMS_P2;Temp;Humidity;BMP_temperature;BMP_pressure;BME280_temperature;BME280_humidity;BME280_pressure;Samples;Min_cycle;Max_cycle;Signal;HPM_P1;HPM_P2
2021/12/31 04:31:05;;;;;;;4.90;2.87;;;;;;;14.51;58.33;99421.16;7867468;23;20235;-83
2021/12/31 04:34:27;;;;;;;3.80;2.27;;;;;;;14.71;57.21;99419.19;6749505;29;20212;-83
2021/12/31 04:37:48;;;;;;;2.40;2.20;;;;;;;14.39;56.86;99379.47;6747174;29;20228;-84
2021/12/31 04:41:10;;;;;;;2.20;2.00;;;;;;;14.08;58.13;99398.31;6762179;29;20235;-83
2021/12/31 04:44:31;;;;;;;3.43;2.10;;;;;;;14.35;58.55;99427.06;6772057;29;20222;-84
2021/12/31 04:47:54;;;;;;;2.47;2.27;;;;;;;14.22;57.94;99411.66;6773265;29;20207;-83
2021/12/31 04:51:16;;;;;;;3.43;2.33;;;;;;;14.08;58.13;99425.44;6774508;29;20596;-83
2021/12/31 04:54:37;;;;;;;2.40;2.20;;;;;;;14.01;58.51;99416.47;6779609;29;20252;-84
2021/12/31 04:57:59;;;;;;;2.57;2.40;;;;;;;13.82;59.08;99406.53;6780124;29;20216;-84
2021/12/31 05:01:21;;;;;;;4.73;2.30;;;;;;;14.01;58.16;99425.47;6781248;29;20234;-84
2021/12/31 05:04:44;;;;;;;2.40;2.20;;;;;;;13.32;59.00;99426.13;6780571;29;20573;-83
2021/12/31 05:08:06;;;;;;;4.43;2.40;;;;;;;13.33;59.03;99360.09;6781744;29;20203;-85
2021/12/31 05:11:27;;;;;;;3.03;2.20;;;;;;;13.54;58.82;99392.38;6789834;29;20243;-83
2021/12/31 05:14:49;;;;;;;5.43;2.83;;;;;;;13.46;59.21;99398.81;6789254;29;20191;-85
2021/12/31 05:18:10;;;;;;;3.70;2.40;;;;;;;13.43;59.47;99422.78;6782149;29;20223;-84
2021/12/31 05:21:34;;;;;;;2.60;2.40;;;;;;;13.66;58.64;99429.47;6780018;29;20231;-84
2021/12/31 05:24:55;;;;;;;3.53;2.13;;;;;;;13.06;59.41;99424.25;6779071;29;20214;-83
2021/12/31 05:28:17;;;;;;;8.57;2.50;;;;;;;13.10;59.57;99411.13;6779297;29;20199;-84
2021/12/31 05:31:39;;;;;;;3.63;2.30;;;;;;;13.29;59.66;99424.66;6779482;29;20239;-85
2021/12/31 05:35:00;;;;;;;2.50;2.40;;;;;;;12.63;60.30;99347.09;6779939;29;20215;-84
2021/12/31 05:38:23;;;;;;;4.67;2.50;;;;;;;12.82;60.35;99418.53;6780681;29;20215;-83
2021/12/31 05:41:45;;;;;;;2.63;2.40;;;;;;;13.07;59.87;99428.63;6765511;29;20231;-84
2021/12/31 05:45:09;;;;;;;4.33;2.70;;;;;;;12.12;62.50;99424.28;6765843;29;20207;-83
2021/12/31 05:48:31;;;;;;;5.70;2.80;;;;;;;12.22;61.97;99362.56;6766034;29;20307;-83
2021/12/31 05:51:53;;;;;;;4.00;3.10;;;;;;;12.91;60.79;99418.13;6765611;29;20688;-83
2021/12/31 05:55:16;;;;;;;3.00;2.50;;;;;;;12.59;59.85;99428.84;6764896;29;20296;-83
2021/12/31 05:58:37;;;;;;;3.10;2.73;;;;;;;12.71;59.70;99416.41;6765843;29;20215;-84
2021/12/31 06:01:59;;;;;;;3.97;2.80;;;;;;;12.62;60.50;99417.66;6767524;29;20227;-83
2021/12/31 06:05:25;;;;;;;3.13;2.70;;;;;;;12.57;61.42;99410.13;6767001;29;20211;-84
2021/12/31 06:08:47;;;;;;;3.93;2.80;;;;;;;12.30;62.45;99426.44;6768253;29;20195;-84
2021/12/31 06:12:10;;;;;;;4.10;2.67;;;;;;;12.08;62.44;99365.41;6767696;29;20239;-83
2021/12/31 06:15:32;;;;;;;3.13;2.90;;;;;;;12.71;61.92;99416.41;6767100;29;20210;-83
2021/12/31 06:18:54;;;;;;;3.00;2.80;;;;;;;12.49;61.63;99415.72;6767908;29;20669;-83
2021/12/31 06:22:16;;;;;;;4.03;3.23;;;;;;;12.78;60.60;99412.69;6768051;29;20240;-83
2021/12/31 06:25:37;;;;;;;5.80;5.10;;;;;;;12.67;59.93;99383.53;6767256;29;20586;-83
2021/12/31 06:29:01;;;;;;;3.83;3.43;;;;;;;12.70;59.73;99418.28;6763776;29;20208;-84
2021/12/31 06:32:22;;;;;;;3.17;2.43;;;;;;;12.25;61.54;99431.63;6760913;29;20238;-84
2021/12/31 06:35:44;;;;;;;3.33;2.40;;;;;;;12.25;61.37;99432.47;6759158;29;20219;-84
2021/12/31 06:39:05;;;;;;;3.13;2.83;;;;;;;12.25;62.03;99437.03;6760365;29;20241;-83
2021/12/31 06:42:27;;;;;;;5.03;2.80;;;;;;;12.25;61.57;99447.84;6760067;29;20239;-84
2021/12/31 06:45:50;;;;;;;6.07;3.27;;;;;;;11.47;64.15;99436.47;6759627;29;20226;-84
2021/12/31 06:49:12;;;;;;;4.30;3.03;;;;;;;12.18;62.79;99406.44;6759881;29;20305;-84
2021/12/31 06:52:37;;;;;;;3.43;3.13;;;;;;;12.30;61.47;99445.38;6759881;29;20696;-84
2021/12/31 06:55:59;;;;;;;4.30;3.43;;;;;;;12.50;61.29;99424.66;6760064;29;20691;-84
2021/12/31 06:59:21;;;;;;;3.47;3.17;;;;;;;11.83;60.98;99338.06;6760728;29;20214;-84
2021/12/31 07:02:44;;;;;;;4.43;3.20;;;;;;;12.15;61.80;99442.81;6761675;29;20711;-82
2021/12/31 07:06:06;;;;;;;5.53;3.40;;;;;;;12.16;61.75;99439.06;6759292;29;20254;-84
2021/12/31 07:09:27;;;;;;;6.03;3.97;;;;;;;12.14;63.24;99445.69;6764386;29;20299;-85
2021/12/31 07:12:56;;;;;;;5.60;3.40;;;;;;;12.50;62.26;99446.28;6766564;29;20235;-84
2021/12/31 07:16:18;;;;;;;5.47;3.93;;;;;;;11.52;61.15;99370.03;6769036;29;20611;-85
2021/12/31 07:19:43;;;;;;;4.33;3.40;;;;;;;12.26;61.78;99454.91;6766267;29;20210;-85
2021/12/31 07:23:08;;;;;;;4.33;3.73;;;;;;;12.30;61.04;99443.53;6765187;29;20263;-86
2021/12/31 07:26:30;;;;;;;4.10;3.50;;;;;;;12.20;61.17;99453.84;6764805;29;20665;-85
2021/12/31 07:29:51;;;;;;;5.90;4.13;;;;;;;12.42;61.08;99466.25;6764286;29;20410;-86
2021/12/31 07:33:17;;;;;;;5.37;4.30;;;;;;;12.28;60.83;99453.69;6767986;29;20242;-84
2021/12/31 07:36:40;;;;;;;5.37;4.73;;;;;;;12.18;60.94;99455.94;6762441;29;20207;-85
2021/12/31 07:40:04;;;;;;;5.93;5.17;;;;;;;11.69;61.54;99438.97;6738591;29;20220;-87
2021/12/31 07:43:26;;;;;;;6.27;4.67;;;;;;;11.60;63.76;99439.31;6749742;29;20244;-81
2021/12/31 07:46:47;;;;;;;7.00;4.93;;;;;;;11.52;63.92;99375.44;6737339;29;20208;-85
2021/12/31 07:50:09;;;;;;;5.60;4.00;;;;;;;12.27;63.44;99448.50;6725073;29;20215;-83
2021/12/31 07:53:32;;;;;;;6.77;4.10;;;;;;;12.81;63.51;99443.94;6714979;29;20261;-85
2021/12/31 07:56:54;;;;;;;3.80;3.40;;;;;;;12.88;62.73;99451.03;6734773;29;20215;-85
2021/12/31 08:00:16;;;;;;;6.37;5.40;;;;;;;12.04;64.01;99459.56;6736203;29;20745;-84
2021/12/31 08:03:37;;;;;;;7.63;6.30;;;;;;;12.37;63.89;99443.53;6740675;29;20552;-81
2021/12/31 08:06:59;;;;;;;6.70;5.03;;;;;;;12.89;62.53;99454.56;6738052;29;20215;-83
2021/12/31 08:10:22;;;;;;;11.13;7.17;;;;;;;12.80;61.49;99458.50;6736043;29;20246;-84
2021/12/31 08:13:44;;;;;;;9.20;6.33;;;;;;;12.65;62.82;99444.28;6740017;29;20263;-83
2021/12/31 08:17:06;;;;;;;8.63;5.73;;;;;;;12.61;62.95;99435.75;6730530;29;20204;-87
2021/12/31 08:20:27;;;;;;;8.77;5.70;;;;;;;12.23;64.63;99466.97;6733836;29;20208;-85
2021/12/31 08:23:49;;;;;;;7.20;5.43;;;;;;;13.09;63.17;99455.50;6739060;29;20300;-86
2021/12/31 08:27:12;;;;;;;14.10;9.30;;;;;;;13.08;62.35;99456.50;6748547;29;20676;-86
2021/12/31 08:30:34;;;;;;;9.73;5.37;;;;;;;12.71;63.16;99428.09;6760007;29;20231;-86
2021/12/31 08:33:55;;;;;;;6.03;4.87;;;;;;;13.59;62.25;99450.31;6754291;29;20291;-88
2021/12/31 08:37:17;;;;;;;9.93;5.87;;;;;;;13.88;61.61;99424.66;6745431;29;20615;-84
2021/12/31 08:40:39;;;;;;;8.40;5.80;;;;;;;13.58;61.16;99380.09;6745201;29;20689;-83
2021/12/31 08:44:02;;;;;;;5.90;5.30;;;;;;;14.62;61.34;99459.31;6738152;29;20209;-86
2021/12/31 08:47:23;;;;;;;9.40;6.10;;;;;;;16.49;55.52;99449.09;6743290;29;20216;-84
2021/12/31 08:50:45;;;;;;;5.77;4.43;;;;;;;17.90;49.99;99436.38;6736431;29;20245;-84
2021/12/31 08:54:07;;;;;;;8.07;5.30;;;;;;;18.16;49.38;99430.41;6716306;29;20250;-85
2021/12/31 08:57:28;;;;;;;7.63;5.47;;;;;;;18.05;49.24;99428.53;6721971;29;20553;-84
2021/12/31 09:00:51;;;;;;;3.30;2.30;;;;;;;17.26;51.23;99428.16;6714702;29;20241;-83
2021/12/31 09:04:13;;;;;;;2.60;2.40;;;;;;;16.83;52.65;99434.88;6714377;29;20206;-83
2021/12/31 09:07:35;;;;;;;3.10;2.80;;;;;;;16.48;54.43;99431.13;6716891;29;20215;-84
2021/12/31 09:10:57;;;;;;;5.33;3.80;;;;;;;16.63;54.05;99442.47;6714102;29;20582;-82
2021/12/31 09:14:19;;;;;;;4.83;4.17;;;;;;;16.80;54.21;99440.78;6712877;29;20261;-82
2021/12/31 09:17:42;;;;;;;4.13;3.03;;;;;;;16.57;54.37;99407.97;6713648;29;20877;-82
2021/12/31 09:21:04;;;;;;;4.87;4.00;;;;;;;17.03;53.19;99408.16;6713776;29;20233;-82
2021/12/31 09:24:26;;;;;;;5.93;3.10;;;;;;;17.25;52.76;99409.31;6712277;29;20206;-82
2021/12/31 09:27:47;;;;;;;2.90;2.70;;;;;;;16.97;53.02;99439.91;6713189;29;20213;-83
2021/12/31 09:31:10;;;;;;;3.40;3.10;;;;;;;17.38;53.33;99433.66;6712151;29;20238;-84
2021/12/31 09:34:33;;;;;;;1.90;1.80;;;;;;;17.40;52.84;99420.66;6712399;29;20245;-81
2021/12/31 09:37:55;;;;;;;1.77;1.67;;;;;;;17.72;52.11;99419.25;6712317;29;20755;-81
2021/12/31 09:41:16;;;;;;;1.80;1.70;;;;;;;17.83;50.65;99426.63;6712663;29;20241;-81
2021/12/31 09:44:38;;;;;;;2.13;1.90;;;;;;;17.86;51.21;99428.91;6718518;29;20215;-81
2021/12/31 09:48:00;;;;;;;2.23;1.97;;;;;;;18.08;50.57;99419.88;6740231;29;20610;-81
2021/12/31 09:51:24;;;;;;;2.43;2.23;;;;;;;17.56;53.00;99425.41;6739142;29;20251;-82
2021/12/31 09:54:48;;;;;;;2.57;2.23;;;;;;;18.22;51.18;99423.19;6735565;29;20269;-81
2021/12/31 09:58:11;;;;;;;2.20;1.77;;;;;;;18.06;51.35;99416.56;6732711;29;20663;-80
2021/12/31 10:01:32;;;;;;;2.97;1.60;;;;;;;18.15;50.69;99412.38;6731548;29;20243;-83
2021/12/31 10:04:55;;;;;;;2.17;1.97;;;;;;;18.32;50.76;99416.09;6730527;29;20209;-83
2021/12/31 10:08:20;;;;;;;1.93;1.83;;;;;;;18.65;49.27;99424.44;6726791;29;20206;-84
2021/12/31 10:11:44;;;;;;;2.00;1.90;;;;;;;18.51;50.39;99423.03;6733903;29;20224;-84
2021/12/31 10:15:06;;;;;;;1.80;1.70;;;;;;;19.14;49.18;99403.81;6738888;29;20235;-84
2021/12/31 10:18:33;;;;;;;1.80;1.70;;;;;;;19.03;49.00;99391.03;6728260;29;20223;-82
2021/12/31 10:21:56;;;;;;;1.73;1.63;;;;;;;19.28;48.27;99407.94;6711055;29;20724;-83
2021/12/31 10:25:21;;;;;;;1.73;1.63;;;;;;;18.88;48.79;99388.81;6728661;29;20217;-83
2021/12/31 10:28:53;;;;;;;1.87;1.77;;;;;;;19.19;48.13;99382.03;6723425;29;20227;-83
2021/12/31 10:32:16;;;;;;;3.03;2.23;;;;;;;19.81;46.95;99389.97;6710672;29;20271;-83
2021/12/31 10:35:39;;;;;;;2.00;1.90;;;;;;;19.80;46.89;99380.09;6710387;29;20645;-81
2021/12/31 10:39:03;;;;;;;1.80;1.70;;;;;;;19.39;48.26;99366.03;6711983;29;20205;-81
2021/12/31 10:42:30;;;;;;;2.67;1.90;;;;;;;18.43;49.95;99378.91;6713992;29;20302;-83
2021/12/31 10:46:00;;;;;;;2.10;1.90;;;;;;;18.41;49.87;99361.94;6718031;29;20192;-81
2021/12/31 10:49:22;;;;;;;1.93;1.83;;;;;;;19.31;47.94;99350.84;6710751;29;20193;-84
2021/12/31 10:52:53;;;;;;;2.43;1.53;;;;;;;19.98;46.94;99368.06;6710500;29;20248;-83
2021/12/31 10:56:15;;;;;;;2.00;1.90;;;;;;;19.94;45.97;99367.72;6714342;29;20196;-83
2021/12/31 10:59:38;;;;;;;2.10;2.00;;;;;;;19.78;45.98;99332.16;6722702;29;20213;-83
2021/12/31 11:03:00;;;;;;;4.67;2.20;;;;;;;19.72;46.29;99360.53;6718808;29;20604;-83
2021/12/31 11:06:23;;;;;;;2.40;2.30;;;;;;;18.75;48.62;99347.34;6725444;29;20242;-82
2021/12/31 11:09:45;;;;;;;2.77;1.90;;;;;;;19.14;48.74;99344.50;6728826;29;20205;-82
2021/12/31 11:13:11;;;;;;;2.87;2.30;;;;;;;19.61;48.51;99331.34;6735850;29;20305;-83
2021/12/31 11:16:38;;;;;;;2.30;2.10;;;;;;;20.27;45.88;99326.59;6724232;29;20259;-83
2021/12/31 11:20:00;;;;;;;2.73;2.53;;;;;;;19.55;47.47;99351.50;6737744;29;20213;-84
2021/12/31 11:23:24;;;;;;;2.83;2.40;;;;;;;19.79;47.19;99352.97;6728134;29;20240;-82
2021/12/31 11:26:46;;;;;;;2.73;2.47;;;;;;;18.24;50.05;99322.78;6716486;29;20213;-82
2021/12/31 11:30:25;;;;;;;2.70;2.43;;;;;;;20.17;46.97;99336.59;6737838;29;20209;-82
2021/12/31 11:34:14;;;;;;;2.20;2.00;;;;;;;20.75;44.83;99315.66;6738415;29;20212;-83
2021/12/31 11:37:45;;;;;;;2.40;2.20;;;;;;;20.48;44.82;99309.34;6739315;29;20224;-80
2021/12/31 11:41:09;;;;;;;1.93;1.83;;;;;;;20.42;45.17;99310.34;6732459;29;20677;-80
2021/12/31 11:44:31;;;;;;;4.37;2.33;;;;;;;20.04;46.67;99298.63;6731641;29;20209;-80
2021/12/31 11:47:53;;;;;;;1.80;1.70;;;;;;;20.38;45.14;99278.22;6732941;29;20249;-81
2021/12/31 11:51:17;;;;;;;2.67;2.13;;;;;;;20.40;44.53;99293.34;6732925;29;20273;-80
2021/12/31 11:54:40;;;;;;;1.90;1.80;;;;;;;20.52;44.81;99288.53;6736582;29;20285;-81
2021/12/31 11:58:06;;;;;;;2.10;2.00;;;;;;;20.35;45.35;99281.50;6732013;29;20314;-83
2021/12/31 12:01:43;;;;;;;2.40;2.03;;;;;;;21.12;43.68;99286.47;6731009;29;20239;-80
2021/12/31 12:05:12;;;;;;;3.20;2.10;;;;;;;20.94;44.14;99296.97;6736337;29;20209;-83
2021/12/31 12:08:51;;;;;;;2.00;1.90;;;;;;;20.79;44.92;99294.88;6737222;29;20224;-83
2021/12/31 12:12:15;;;;;;;1.90;1.80;;;;;;;20.65;44.17;99307.34;6736113;29;20232;-82
2021/12/31 12:15:41;;;;;;;1.90;1.80;;;;;;;20.37;45.31;99313.03;6737766;29;20319;-83
2021/12/31 12:19:05;;;;;;;2.10;2.00;;;;;;;19.77;46.48;99314.09;6738589;29;20185;-83
2021/12/31 12:22:28;;;;;;;2.27;2.10;;;;;;;20.06;46.82;99315.59;6731498;29;20235;-83
2021/12/31 12:25:52;;;;;;;2.90;2.63;;;;;;;20.39;46.22;99312.78;6723358;29;20198;-83
2021/12/31 12:29:24;;;;;;;2.53;2.30;;;;;;;19.87;47.96;99330.66;6725075;29;20217;-83
2021/12/31 12:33:04;;;;;;;2.00;1.90;;;;;;;20.13;46.55;99314.38;6730847;29;20237;-84
2021/12/31 12:36:26;;;;;;;2.23;2.00;;;;;;;20.14;46.88;99357.09;6725468;29;20200;-83
2021/12/31 12:39:57;;;;;;;2.30;2.10;;;;;;;20.43;45.94;99306.53;6718859;29;20219;-83
2021/12/31 12:43:22;;;;;;;2.83;2.50;;;;;;;20.73;45.54;99331.53;6711942;29;20233;-81
2021/12/31 12:46:54;;;;;;;2.00;1.80;;;;;;;20.10;47.03;99328.56;6713014;29;20325;-82
2021/12/31 12:50:16;;;;;;;2.20;2.00;;;;;;;20.67;46.41;99298.84;6713808;29;20590;-82
2021/12/31 12:53:39;;;;;;;2.73;2.00;;;;;;;20.89;45.29;99325.16;6724266;29;20237;-82
2021/12/31 12:57:03;;;;;;;6.57;2.30;;;;;;;20.71;45.45;99324.66;6728626;29;20406;-82
2021/12/31 13:00:38;;;;;;;2.90;2.37;;;;;;;20.94;45.36;99308.75;6723512;29;20261;-82
2021/12/31 13:04:00;;;;;;;2.40;2.20;;;;;;;21.18;44.99;99321.06;6732236;29;20666;-84
2021/12/31 13:07:22;;;;;;;2.07;1.87;;;;;;;20.84;45.56;99322.34;6735732;29;20209;-83
2021/12/31 13:10:44;;;;;;;1.90;1.80;;;;;;;20.96;44.67;99297.53;6735400;29;20235;-84
2021/12/31 13:14:12;;;;;;;2.20;2.00;;;;;;;20.70;45.36;99318.31;6738375;29;20232;-84
2021/12/31 13:17:36;;;;;;;2.37;2.17;;;;;;;20.76;46.01;99311.00;6740450;29;20216;-84
2021/12/31 13:21:04;;;;;;;2.20;2.00;;;;;;;20.71;45.70;99300.81;6745532;29;20229;-83
2021/12/31 13:24:28;;;;;;;3.07;1.80;;;;;;;20.52;45.78;99283.06;6740401;29;20369;-83
2021/12/31 13:27:50;;;;;;;2.10;1.90;;;;;;;20.30;46.27;99265.00;6741631;29;20814;-83
2021/12/31 13:31:11;;;;;;;2.03;1.93;;;;;;;20.78;45.84;99261.13;6738999;29;20411;-86
2021/12/31 13:34:41;;;;;;;1.97;1.87;;;;;;;20.71;45.94;99267.09;6734487;29;20232;-85
2021/12/31 13:38:06;;;;;;;2.20;2.00;;;;;;;20.87;45.39;99257.94;6737302;29;20232;-85
2021/12/31 13:41:30;;;;;;;2.07;1.97;;;;;;;20.88;45.69;99248.63;6741805;29;20233;-84
2021/12/31 13:44:51;;;;;;;2.00;1.90;;;;;;;21.22;44.81;99237.16;6741806;29;20213;-84
2021/12/31 13:48:16;;;;;;;2.07;1.97;;;;;;;20.93;45.56;99235.81;6745444;29;20298;-84
2021/12/31 13:51:40;;;;;;;2.47;2.20;;;;;;;20.58;45.72;99232.72;6751185;29;20224;-84
2021/12/31 13:55:17;;;;;;;2.00;1.90;;;;;;;20.90;45.57;99219.91;6746157;29;20224;-83
2021/12/31 13:58:40;;;;;;;2.20;2.00;;;;;;;21.02;45.30;99220.56;6742713;29;20227;-84
2021/12/31 14:02:24;;;;;;;2.17;2.00;;;;;;;20.77;45.70;99223.84;6727202;29;20233;-83
2021/12/31 14:05:47;;;;;;;2.73;2.30;;;;;;;20.73;45.25;99229.28;6719458;29;20216;-84
2021/12/31 14:09:10;;;;;;;2.20;2.00;;;;;;;20.70;45.87;99249.00;6730053;29;20209;-83
2021/12/31 14:12:32;;;;;;;3.57;2.40;;;;;;;20.65;45.86;99214.16;6714612;29;20314;-83
2021/12/31 14:15:53;;;;;;;2.50;2.30;;;;;;;20.96;45.33;99242.69;6716158;29;20233;-82
2021/12/31 14:19:15;;;;;;;2.30;2.10;;;;;;;20.78;45.96;99243.88;6709078;29;20213;-84
2021/12/31 14:22:37;;;;;;;2.30;2.10;;;;;;;20.31;47.37;99248.31;6719347;29;20266;-83
2021/12/31 14:26:00;;;;;;;3.03;2.20;;;;;;;20.40;47.64;99273.34;6722367;29;20208;-85
2021/12/31 14:29:22;;;;;;;2.27;2.10;;;;;;;20.57;47.01;99266.69;6724939;29;20241;-82
2021/12/31 14:32:44;;;;;;;2.20;2.03;;;;;;;20.57;46.65;99254.91;6731708;29;20455;-83
2021/12/31 14:36:08;;;;;;;2.30;2.10;;;;;;;20.54;46.90;99264.47;6711103;29;20293;-82
2021/12/31 14:39:30;;;;;;;2.30;2.10;;;;;;;20.47;47.43;99269.34;6713024;29;20228;-82
2021/12/31 14:42:54;;;;;;;3.73;3.30;;;;;;;20.33;47.96;99291.91;6721065;29;20232;-82
2021/12/31 14:46:16;;;;;;;4.00;2.57;;;;;;;19.99;49.62;99312.22;6734593;29;20281;-82
2021/12/31 14:49:37;;;;;;;2.97;2.40;;;;;;;19.98;49.50;99305.91;6734772;29;20657;-81
2021/12/31 14:53:02;;;;;;;2.60;2.40;;;;;;;20.07;48.77;99306.34;6735184;29;20231;-82
2021/12/31 14:56:24;;;;;;;2.57;1.97;;;;;;;19.76;49.52;99310.50;6734649;29;20310;-82
2021/12/31 14:59:47;;;;;;;3.97;2.37;;;;;;;19.48;50.96;99307.09;6735569;29;20292;-82
2021/12/31 15:03:08;;;;;;;5.37;2.77;;;;;;;19.26;50.51;99282.41;6734784;29;20236;-82
2021/12/31 15:06:30;;;;;;;4.50;3.40;;;;;;;18.35;53.21;99272.81;6734442;29;20215;-81
2021/12/31 15:09:52;;;;;;;5.33;3.23;;;;;;;18.13;53.99;99263.59;6735056;29;20581;-81
2021/12/31 15:13:13;;;;;;;5.27;3.97;;;;;;;17.55;55.34;99273.78;6735220;29;20230;-82
2021/12/31 15:16:36;;;;;;;4.73;4.33;;;;;;;17.37;55.66;99288.34;6734371;29;20273;-82
2021/12/31 15:19:58;;;;;;;4.57;4.17;;;;;;;17.68;55.13;99282.53;6735020;29;20504;-82
2021/12/31 15:23:20;;;;;;;4.83;4.23;;;;;;;17.67;55.19;99293.69;6735474;29;20220;-82
2021/12/31 15:26:43;;;;;;;5.27;4.10;;;;;;;17.88;55.04;99293.88;6734485;29;20205;-82
2021/12/31 15:30:05;;;;;;;4.37;3.97;;;;;;;17.96;54.31;99299.00;6734780;29;20210;-82
2021/12/31 15:33:30;;;;;;;5.73;4.00;;;;;;;17.53;55.18;99306.75;6727399;29;20242;-82
2021/12/31 15:36:52;;;;;;;5.50;4.20;;;;;;;17.00;57.06;99295.06;6733833;29;20265;-84
2021/12/31 15:40:14;;;;;;;5.63;3.90;;;;;;;17.38;55.98;99298.22;6737229;29;20214;-83
2021/12/31 15:43:36;;;;;;;5.57;4.30;;;;;;;17.09;56.35;99281.91;6737841;29;20214;-82
2021/12/31 15:46:57;;;;;;;6.27;4.87;;;;;;;16.95;56.97;99308.56;6729984;29;20221;-82
2021/12/31 15:50:20;;;;;;;5.90;5.13;;;;;;;17.07;56.17;99298.50;6745369;29;20209;-83
2021/12/31 15:53:42;;;;;;;6.63;5.27;;;;;;;16.75;56.69;99299.03;6742119;29;20222;-82
2021/12/31 15:57:05;;;;;;;6.30;5.07;;;;;;;16.36;57.69;99289.50;6737468;29;20311;-83
2021/12/31 16:00:28;;;;;;;5.20;4.70;;;;;;;15.99;58.54;99274.28;6731366;29;20214;-83
2021/12/31 16:03:50;;;;;;;8.67;5.60;;;;;;;16.09;58.20;99274.56;6720685;29;20260;-83
2021/12/31 16:07:12;;;;;;;9.20;6.50;;;;;;;16.00;57.78;99254.19;6727217;29;20249;-82
2021/12/31 16:10:34;;;;;;;6.93;5.63;;;;;;;15.75;58.93;99309.72;6709752;29;20406;-83
2021/12/31 16:13:58;;;;;;;7.93;6.70;;;;;;;15.97;58.23;99308.19;6710077;29;20726;-83
2021/12/31 16:17:20;;;;;;;7.83;7.03;;;;;;;15.52;59.35;99309.56;6710032;29;20681;-82
2021/12/31 16:20:42;;;;;;;10.03;7.97;;;;;;;15.83;58.51;99323.84;6710500;29;20237;-83
2021/12/31 16:24:06;;;;;;;8.27;6.93;;;;;;;15.83;58.14;99332.00;6711179;29;20293;-83
2021/12/31 16:27:27;;;;;;;9.17;7.80;;;;;;;15.37;57.36;99239.25;6712836;29;20219;-81
2021/12/31 16:30:49;;;;;;;9.43;6.83;;;;;;;15.43;58.63;99317.16;6708598;29;20235;-82
2021/12/31 16:34:11;;;;;;;7.30;6.47;;;;;;;15.13;59.59;99313.44;6709997;29;20259;-81
2021/12/31 16:37:32;;;;;;;6.80;6.10;;;;;;;15.16;58.93;99299.38;6734279;29;20614;-83
2021/12/31 16:40:55;;;;;;;7.93;6.70;;;;;;;15.08;59.28;99313.25;6733647;29;20610;-84
2021/12/31 16:44:17;;;;;;;6.77;5.77;;;;;;;15.10;59.86;99324.72;6737618;29;20221;-84
2021/12/31 16:47:39;;;;;;;6.93;5.80;;;;;;;15.01;59.53;99306.22;6740673;29;20209;-82
2021/12/31 16:51:00;;;;;;;6.70;5.43;;;;;;;15.13;59.21;99316.16;6717045;29;20249;-83
2021/12/31 16:54:22;;;;;;;7.47;5.93;;;;;;;14.83;59.59;99266.25;6723238;29;20234;-85
2021/12/31 16:57:46;;;;;;;6.23;5.50;;;;;;;15.30;59.29;99313.69;6720379;29;20205;-82
2021/12/31 17:01:07;;;;;;;7.23;6.10;;;;;;;14.70;60.11;99325.25;6726152;29;20265;-84
2021/12/31 17:04:30;;;;;;;14.37;11.07;;;;;;;14.55;61.64;99346.41;6712945;29;20217;-83
2021/12/31 17:07:52;;;;;;;13.27;8.83;;;;;;;15.00;59.99;99361.56;6713858;29;20205;-83
2021/12/31 17:11:13;;;;;;;10.77;8.70;;;;;;;14.61;61.66;99359.09;6713448;29;20244;-83
2021/12/31 17:14:36;;;;;;;11.40;10.30;;;;;;;14.98;60.29;99369.94;6712999;29;20240;-81
2021/12/31 17:17:58;;;;;;;11.63;8.23;;;;;;;15.25;59.46;99367.84;6713947;29;20221;-82
2021/12/31 17:21:19;;;;;;;10.63;6.90;;;;;;;15.00;59.31;99380.59;6714896;29;20249;-82
2021/12/31 17:24:41;;;;;;;10.33;7.77;;;;;;;14.00;62.68;99376.88;6719179;29;20224;-82
2021/12/31 17:28:03;;;;;;;8.30;7.40;;;;;;;14.75;60.36;99382.44;6728619;29;20213;-83
2021/12/31 17:31:26;;;;;;;9.33;7.23;;;;;;;14.90;59.06;99397.38;6728068;29;20245;-83
2021/12/31 17:34:50;;;;;;;8.37;6.80;;;;;;;13.89;60.80;99396.50;6712228;29;20233;-81
2021/12/31 17:38:11;;;;;;;8.63;7.00;;;;;;;14.03;60.41;99403.53;6713763;29;20687;-81
2021/12/31 17:41:33;;;;;;;10.60;8.10;;;;;;;13.96;61.17;99405.44;6712750;29;20233;-82
2021/12/31 17:44:55;;;;;;;10.43;8.73;;;;;;;14.03;61.32;99426.06;6711960;29;20216;-83
2021/12/31 17:48:19;;;;;;;11.57;8.80;;;;;;;14.12;60.78;99410.41;6712701;29;20217;-82
2021/12/31 17:51:42;;;;;;;8.57;7.67;;;;;;;14.53;60.01;99440.78;6713705;29;20244;-82
2021/12/31 17:55:07;;;;;;;11.73;8.37;;;;;;;14.16;59.07;99401.63;6711948;29;20232;-83
2021/12/31 17:58:29;;;;;;;16.53;14.03;;;;;;;13.45;62.67;99454.06;6709756;29;20196;-83
2021/12/31 18:01:50;;;;;;;22.03;18.00;;;;;;;13.86;61.51;99465.50;6711616;29;20241;-81
2021/12/31 18:05:14;;;;;;;20.90;16.77;;;;;;;14.03;61.07;99474.03;6711734;29;20236;-80
2021/12/31 18:08:35;;;;;;;23.93;19.57;;;;;;;14.18;60.76;99478.22;6709789;29;20252;-80
2021/12/31 18:11:57;;;;;;;10.47;8.80;;;;;;;13.80;58.73;99487.22;6709648;29;20233;-81
2021/12/31 18:15:19;;;;;;;15.67;9.67;;;;;;;13.71;60.03;99486.59;6711649;29;20253;-79
2021/12/31 18:18:43;;;;;;;11.53;9.13;;;;;;;13.74;60.37;99474.50;6712385;29;20214;-81
2021/12/31 18:22:06;;;;;;;10.83;9.67;;;;;;;13.91;61.52;99475.72;6710533;29;20373;-82
2021/12/31 18:25:28;;;;;;;16.40;12.07;;;;;;;13.60;61.69;99513.47;6711485;29;20217;-82
2021/12/31 18:28:49;;;;;;;12.50;9.00;;;;;;;13.67;60.91;99408.59;6711057;29;20284;-81
2021/12/31 18:32:11;;;;;;;13.50;11.40;;;;;;;14.13;59.75;99507.84;6711272;29;20355;-80
2021/12/31 18:35:33;;;;;;;18.67;15.00;;;;;;;13.97;59.54;99515.53;6711865;29;20229;-80
2021/12/31 18:38:58;;;;;;;19.87;16.87;;;;;;;14.14;59.22;99516.78;6710268;29;20213;-82
2021/12/31 18:42:19;;;;;;;24.57;19.93;;;;;;;14.27;57.83;99522.25;6710653;29;20240;-80
2021/12/31 18:45:42;;;;;;;23.67;17.13;;;;;;;13.74;58.85;99523.28;6708891;29;20702;-82
2021/12/31 18:49:16;;;;;;;18.20;14.30;;;;;;;13.87;58.80;99537.66;6710457;29;20216;-81
2021/12/31 18:52:37;;;;;;;13.27;11.60;;;;;;;13.56;57.70;99542.00;6711960;29;20232;-80
2021/12/31 18:56:01;;;;;;;14.80;12.13;;;;;;;13.19;58.48;99556.09;6711672;29;20240;-80
2021/12/31 18:59:23;;;;;;;15.50;11.83;;;;;;;12.57;60.55;99566.19;6712456;29;20281;-82
2021/12/31 19:02:45;;;;;;;17.27;12.90;;;;;;;12.64;60.05;99553.53;6711998;29;20275;-82
2021/12/31 19:06:06;;;;;;;13.27;10.97;;;;;;;12.68;59.43;99552.13;6711493;29;20209;-82
2021/12/31 19:09:28;;;;;;;11.10;9.90;;;;;;;12.54;59.82;99556.59;6710996;29;20228;-82
2021/12/31 19:12:51;;;;;;;14.97;10.40;;;;;;;12.56;60.30;99561.84;6711223;29;20232;-82
2021/12/31 19:16:12;;;;;;;13.13;10.93;;;;;;;12.49;60.11;99567.19;6710478;29;20253;-82
2021/12/31 19:19:34;;;;;;;13.30;10.27;;;;;;;12.38;61.19;99594.78;6711644;29;20223;-78
2021/12/31 19:22:56;;;;;;;11.40;9.97;;;;;;;12.34;60.76;99590.78;6711825;29;20253;-84
2021/12/31 19:26:18;;;;;;;12.00;10.13;;;;;;;11.91;62.32;99602.72;6711882;29;20224;-83
2021/12/31 19:29:42;;;;;;;12.90;10.70;;;;;;;12.14;61.92;99608.75;6710357;29;20212;-84
2021/12/31 19:33:03;;;;;;;13.73;10.67;;;;;;;12.04;62.22;99602.00;6709594;29;20243;-83
2021/12/31 19:36:25;;;;;;;12.43;9.57;;;;;;;12.07;61.97;99571.88;6710206;29;20236;-84
2021/12/31 19:39:46;;;;;;;12.97;9.83;;;;;;;12.51;61.93;99637.31;6710717;29;20216;-85
2021/12/31 19:43:08;;;;;;;10.30;8.80;;;;;;;12.62;61.27;99637.59;6715741;29;20232;-83
2021/12/31 19:46:31;;;;;;;10.60;9.00;;;;;;;12.77;60.61;99634.78;6731882;29;20197;-84
2021/12/31 19:49:53;;;;;;;11.33;9.23;;;;;;;12.11;61.48;99638.03;6730355;29;20218;-82
2021/12/31 19:53:15;;;;;;;11.43;8.63;;;;;;;11.89;62.61;99642.63;6728621;29;20224;-84
2021/12/31 19:56:37;;;;;;;12.93;10.30;;;;;;;11.99;63.61;99653.91;6714288;29;20231;-82
2021/12/31 19:59:59;;;;;;;11.33;9.33;;;;;;;12.29;62.94;99662.72;6721727;29;20204;-83
2021/12/31 20:03:23;;;;;;;14.17;11.40;;;;;;;12.19;63.26;99644.13;6738146;29;20231;-83
2021/12/31 20:06:44;;;;;;;53.93;38.37;;;;;;;12.27;62.48;99676.44;6740874;29;20212;-82
2021/12/31 20:10:07;;;;;;;32.10;22.03;;;;;;;12.53;62.22;99671.25;6737395;29;20574;-82
2021/12/31 20:13:31;;;;;;;12.50;10.17;;;;;;;12.24;61.88;99689.50;6736583;29;20232;-82
2021/12/31 20:16:52;;;;;;;12.47;9.30;;;;;;;12.46;61.52;99699.28;6734758;29;20380;-82
2021/12/31 20:20:17;;;;;;;21.53;14.23;;;;;;;12.08;62.33;99714.09;6739755;29;20296;-83
2021/12/31 20:23:38;;;;;;;13.60;10.67;;;;;;;11.93;63.33;99716.03;6736210;29;20215;-83